Time;durP1;ratioP1;P1;durP2;ratioP2;P2;SDS_P1;SDS_P2;PMS_P1;PMS_P2;Temp;Humidity;BMP_temperature;BMP_pressure;BME280_temperature;BME280_humidity;BME280_pressure;Samples;Min_cycle;Max_cycle;Signal;HPM_P1;HPM_P2
2022/02/07 00:01:58;;;;;;;1.08;0.80;;;3.90;99.90;;;;;;4941946;28;20938;-85
2022/02/07 00:04:28;;;;;;;0.68;0.68;;;4.20;99.90;;;;;;4939155;29;20210;-85
2022/02/07 00:06:54;;;;;;;1.80;0.80;;;3.80;99.90;;;;;;4944755;29;20201;-86
2022/02/07 00:09:20;;;;;;;2.97;1.50;;;3.70;99.90;;;;;;4949699;29;20649;-86
2022/02/07 00:11:45;;;;;;;2.87;2.23;;;3.20;99.90;;;;;;4930486;29;20233;-85
2022/02/07 00:14:12;;;;;;;5.50;1.87;;;3.60;99.90;;;;;;4931548;29;20615;-85
2022/02/07 00:16:37;;;;;;;1.25;1.25;;;3.30;99.90;;;;;;4930832;29;20194;-86
2022/02/07 00:19:05;;;;;;;0.93;0.93;;;3.10;99.90;;;;;;4924080;29;20533;-86
2022/02/07 00:21:32;;;;;;;2.53;1.65;;;2.90;99.90;;;;;;4929775;29;20191;-86
2022/02/07 00:23:58;;;;;;;3.38;1.20;;;3.80;99.90;;;;;;4950320;29;20187;-86
2022/02/07 00:26:23;;;;;;;1.10;0.67;;;3.30;99.90;;;;;;4947710;29;20186;-86
2022/02/07 00:28:51;;;;;;;1.23;1.23;;;3.30;99.90;;;;;;4949321;29;20265;-85
2022/02/07 00:31:17;;;;;;;1.40;0.90;;;3.40;99.90;;;;;;4922628;29;20632;-85
2022/02/07 00:33:42;;;;;;;1.03;0.90;;;3.50;99.90;;;;;;4948486;29;20186;-84
2022/02/07 00:36:09;;;;;;;4.67;1.00;;;3.50;99.90;;;;;;4929877;29;20227;-85
2022/02/07 00:38:34;;;;;;;2.70;1.38;;;4.80;99.90;;;;;;4930982;29;20210;-85
2022/02/07 00:41:13;;;;;;;4.17;2.40;;;3.50;99.90;;;;;;4941816;29;20223;-86
2022/02/07 00:43:41;;;;;;;2.22;1.20;;;3.60;99.90;;;;;;4929050;29;20333;-85
2022/02/07 00:48:33;;;;;;;3.63;0.90;;;;;;;;;;4948936;29;20198;-85
2022/02/07 00:50:59;;;;;;;5.35;1.15;;;3.40;99.90;;;;;;4946808;29;20301;-86
2022/02/07 00:53:25;;;;;;;8.33;1.07;;;3.40;99.90;;;;;;4931529;29;20317;-85
2022/02/07 00:55:53;;;;;;;8.65;1.00;;;3.10;99.90;;;;;;4946508;29;20217;-86
2022/02/07 00:58:18;;;;;;;5.32;2.05;;;4.60;99.90;;;;;;4930751;29;20269;-86
2022/02/07 01:00:44;;;;;;;6.30;1.40;;;3.20;99.90;;;;;;4924767;29;20290;-84
2022/02/07 01:03:10;;;;;;;1.95;1.60;;;3.40;99.90;;;;;;4930774;29;20622;-85
2022/02/07 01:05:36;;;;;;;2.00;1.60;;;3.30;99.90;;;;;;4924606;29;20281;-85
2022/02/07 01:08:04;;;;;;;4.20;1.90;;;3.20;99.90;;;;;;4927892;29;20426;-87
2022/02/07 01:16:13;;;;;;;3.07;1.50;;;3.30;99.90;;;;;;4945996;29;20245;-85
2022/02/07 01:21:51;;;;;;;1.50;1.40;;;4.40;99.90;;;;;;4945873;29;20632;-84
2022/02/07 01:51:07;;;;;;;6.00;2.07;;;3.20;99.90;;;;;;4943115;29;20242;-84
2022/02/07 01:56:03;;;;;;;3.80;1.50;;;3.20;99.90;;;;;;4948823;29;20226;-84
2022/02/07 01:58:29;;;;;;;3.72;1.52;;;2.80;99.90;;;;;;4934092;29;20186;-85
2022/02/07 02:00:54;;;;;;;4.67;2.00;;;6.70;99.90;;;;;;4931779;29;20190;-86
2022/02/07 02:03:20;;;;;;;3.33;1.33;;;3.60;99.90;;;;;;4933041;29;20422;-85
2022/02/07 02:05:46;;;;;;;5.13;2.30;;;3.40;99.90;;;;;;4950050;29;20194;-85
2022/02/07 02:08:15;;;;;;;2.60;1.40;;;3.30;99.90;;;;;;4934127;29;20183;-85
2022/02/07 02:10:44;;;;;;;7.97;1.95;;;2.90;99.90;;;;;;4949521;29;20214;-86
2022/02/07 02:13:15;;;;;;;3.35;0.95;;;3.30;99.90;;;;;;4950717;29;20343;-83
2022/02/07 02:15:50;;;;;;;5.80;1.73;;;4.30;99.90;;;;;;4940418;29;20631;-86
2022/02/07 02:35:18;;;;;;;5.97;2.08;;;4.40;99.90;;;;;;4946727;29;20198;-86
2022/02/07 02:45:40;;;;;;;2.25;1.50;;;3.60;99.90;;;;;;4950319;29;20269;-85
2022/02/07 02:48:15;;;;;;;5.38;1.70;;;3.60;99.90;;;;;;4950495;29;20542;-84
2022/02/07 02:50:42;;;;;;;5.93;1.30;;;3.50;99.90;;;;;;4924719;29;20715;-85
2022/02/07 02:53:13;;;;;;;12.80;1.98;;;3.60;99.90;;;;;;4950794;29;20265;-85
2022/02/07 02:55:42;;;;;;;10.13;1.80;;;4.60;99.90;;;;;;4948891;29;20200;-86
2022/02/07 02:58:10;;;;;;;4.97;2.03;;;3.60;99.90;;;;;;4951840;29;20656;-85
2022/02/07 03:00:36;;;;;;;6.43;2.38;;;3.50;99.90;;;;;;4949381;28;20555;-85
2022/02/07 03:03:02;;;;;;;5.93;2.15;;;3.50;99.90;;;;;;4950036;29;20355;-86
2022/02/07 03:05:28;;;;;;;7.57;3.03;;;3.60;99.90;;;;;;4928105;29;20547;-86
2022/02/07 03:07:54;;;;;;;6.05;1.98;;;3.20;99.90;;;;;;4925078;29;20252;-85
2022/02/07 03:13:15;;;;;;;12.20;1.63;;;3.20;99.90;;;;;;4949781;29;20166;-85
2022/02/07 03:18:25;;;;;;;6.70;1.90;;;3.20;99.90;;;;;;4949531;29;20667;-85
2022/02/07 03:23:22;;;;;;;10.07;2.78;;;3.50;99.90;;;;;;4928730;29;20582;-82
2022/02/07 03:25:48;;;;;;;1.95;1.40;;;3.50;99.90;;;;;;4908472;29;20195;-81
2022/02/07 03:28:15;;;;;;;6.30;1.10;;;3.60;99.90;;;;;;4927738;29;20210;-83
2022/02/07 03:30:41;;;;;;;5.65;1.83;;;3.50;99.90;;;;;;4924620;29;20519;-82
2022/02/07 03:33:07;;;;;;;1.63;1.63;;;3.40;99.90;;;;;;4915841;29;20227;-82
2022/02/07 03:35:34;;;;;;;8.70;3.03;;;3.50;99.90;;;;;;4911822;29;20796;-83
2022/02/07 03:37:59;;;;;;;5.18;2.08;;;3.50;99.90;;;;;;4900880;29;20187;-82
2022/02/07 03:40:25;;;;;;;5.40;1.80;;;3.60;99.90;;;;;;4901395;29;20203;-82
2022/02/07 03:42:51;;;;;;;4.53;1.70;;;3.70;99.90;;;;;;4916135;29;20539;-83
2022/02/07 03:45:16;;;;;;;3.80;1.17;;;3.60;99.90;;;;;;4920301;29;20648;-82
2022/02/07 03:47:42;;;;;;;4.63;1.30;;;3.60;99.90;;;;;;4918368;29;20203;-82
2022/02/07 03:50:10;;;;;;;6.47;1.23;;;3.60;99.90;;;;;;4917452;29;20479;-82
2022/02/07 03:52:35;;;;;;;2.60;1.98;;;3.60;99.90;;;;;;4901473;29;20591;-82
2022/02/07 03:55:01;;;;;;;5.10;1.60;;;3.60;99.90;;;;;;4920100;29;20279;-82
2022/02/07 03:57:27;;;;;;;5.10;1.93;;;3.60;99.90;;;;;;4900091;29;20580;-82
2022/02/07 03:59:52;;;;;;;1.87;0.80;;;3.60;99.90;;;;;;4919089;29;20213;-83
2022/02/07 04:02:19;;;;;;;6.77;1.53;;;3.20;99.90;;;;;;4914841;29;20215;-83
2022/02/07 04:04:51;;;;;;;11.27;1.80;;;5.10;99.90;;;;;;4921241;29;20196;-82
2022/02/07 04:07:17;;;;;;;6.20;2.10;;;3.60;99.90;;;;;;4917942;29;20188;-82
2022/02/07 04:09:47;;;;;;;8.00;1.63;;;3.70;99.90;;;;;;4917048;29;20186;-83
2022/02/07 04:12:17;;;;;;;1.55;0.80;;;3.60;99.90;;;;;;4919725;29;20443;-82
2022/02/07 04:14:43;;;;;;;19.85;2.58;;;3.70;99.90;;;;;;4915493;29;20811;-82
2022/02/07 04:17:12;;;;;;;11.67;1.93;;;3.60;99.90;;;;;;4915736;29;20292;-83
2022/02/07 04:19:39;;;;;;;5.32;1.63;;;3.30;99.90;;;;;;4923645;29;20194;-83
2022/02/07 04:22:07;;;;;;;9.63;1.90;;;4.90;99.90;;;;;;4925967;29;20236;-85
2022/02/07 04:24:33;;;;;;;4.82;2.10;;;3.40;99.90;;;;;;4919867;29;20350;-83
2022/02/07 04:26:59;;;;;;;10.10;1.52;;;3.60;99.90;;;;;;4926562;29;20203;-84
2022/02/07 04:29:25;;;;;;;4.83;2.03;;;3.50;99.90;;;;;;4928410;29;20210;-82
2022/02/07 04:31:50;;;;;;;7.87;1.13;;;3.70;99.90;;;;;;4925598;29;20215;-83
2022/02/07 04:34:16;;;;;;;7.90;1.67;;;3.70;99.90;;;;;;4911421;29;20230;-83
2022/02/07 04:36:45;;;;;;;8.27;1.60;;;3.70;99.90;;;;;;4909417;29;20203;-82
2022/02/07 04:39:11;;;;;;;3.28;1.80;;;3.70;99.90;;;;;;4927287;29;20435;-82
2022/02/07 04:41:42;;;;;;;5.65;2.08;;;3.80;99.90;;;;;;4908658;29;20740;-82
2022/02/07 04:44:11;;;;;;;1.88;1.15;;;3.40;99.90;;;;;;4911358;29;20168;-81
2022/02/07 04:51:59;;;;;;;9.57;0.93;;;3.80;99.90;;;;;;4917434;29;20258;-82
2022/02/07 05:02:27;;;;;;;6.88;2.10;;;4.20;99.90;;;;;;4922078;29;20214;-82
2022/02/07 05:05:09;;;;;;;2.88;1.80;;;4.00;99.90;;;;;;4896067;29;20179;-82
2022/02/07 05:15:48;;;;;;;10.10;2.10;;;4.00;99.90;;;;;;4918173;29;20199;-82
2022/02/07 05:18:14;;;;;;;12.88;2.35;;;3.90;99.90;;;;;;4902803;29;20196;-82
2022/02/07 05:20:39;;;;;;;5.73;1.30;;;4.10;99.90;;;;;;4927872;29;20287;-82
2022/02/07 05:23:05;;;;;;;6.07;2.50;;;4.10;99.90;;;;;;4921096;29;20456;-81
2022/02/07 05:25:31;;;;;;;16.27;1.97;;;3.80;99.90;;;;;;4906267;29;20223;-82
2022/02/07 05:27:56;;;;;;;10.50;2.30;;;4.20;99.90;;;;;;4919845;29;20206;-82
2022/02/07 05:30:22;;;;;;;5.37;2.63;;;4.20;99.90;;;;;;4926458;29;20279;-83
2022/02/07 05:32:48;;;;;;;9.53;2.07;;;4.40;99.90;;;;;;4923462;29;20227;-83
2022/02/07 05:35:13;;;;;;;6.83;1.80;;;4.20;99.90;;;;;;4932435;29;20195;-82
2022/02/07 05:37:39;;;;;;;6.00;2.30;;;6.00;99.90;;;;;;4926545;29;20215;-83
2022/02/07 05:40:10;;;;;;;4.47;1.60;;;4.00;99.90;;;;;;4915716;29;20274;-82
2022/02/07 05:42:38;;;;;;;10.27;2.17;;;4.40;99.90;;;;;;4922616;29;20260;-84
2022/02/07 05:45:06;;;;;;;12.45;2.35;;;4.40;99.90;;;;;;4925493;29;20269;-83
2022/02/07 05:47:32;;;;;;;3.15;2.00;;;4.50;99.90;;;;;;4928090;29;20195;-83
2022/02/07 05:49:58;;;;;;;3.57;1.50;;;4.50;99.90;;;;;;4928011;29;20218;-83
2022/02/07 05:52:23;;;;;;;13.07;3.03;;;3.90;99.90;;;;;;4926597;29;20823;-82
2022/02/07 05:54:49;;;;;;;11.10;3.63;;;4.10;99.90;;;;;;4921352;29;20540;-82
2022/02/07 05:57:33;;;;;;;7.87;1.87;;;4.30;99.90;;;;;;4916272;29;20226;-82
2022/02/07 06:00:04;;;;;;;10.05;2.40;;;4.30;99.90;;;;;;4904682;29;20439;-83
2022/02/07 06:02:30;;;;;;;5.82;1.90;;;4.50;99.90;;;;;;4900726;29;20225;-82
2022/02/07 06:04:59;;;;;;;6.37;2.07;;;6.10;99.90;;;;;;4921431;29;20689;-82
2022/02/07 06:07:24;;;;;;;5.97;1.45;;;3.90;99.90;;;;;;4900873;29;20330;-83
2022/02/07 06:09:50;;;;;;;6.50;3.00;;;7.40;99.90;;;;;;4914102;29;20665;-84
2022/02/07 06:12:16;;;;;;;3.60;2.00;;;4.50;99.90;;;;;;4907509;29;20199;-84
2022/02/07 06:14:41;;;;;;;3.83;1.90;;;4.30;99.90;;;;;;4908789;29;20256;-84
2022/02/07 06:17:07;;;;;;;15.77;3.40;;;4.30;99.90;;;;;;4929100;29;20199;-84
2022/02/07 06:19:33;;;;;;;8.63;2.50;;;6.40;99.90;;;;;;4927552;29;20816;-84
2022/02/07 06:21:59;;;;;;;7.33;2.00;;;4.50;99.90;;;;;;4928860;29;20300;-83
2022/02/07 06:24:24;;;;;;;16.77;2.47;;;4.90;99.90;;;;;;4913971;29;20424;-84
2022/02/07 06:26:50;;;;;;;3.63;2.00;;;4.70;99.90;;;;;;4928761;29;20183;-85
2022/02/07 06:29:16;;;;;;;13.50;2.53;;;4.60;99.90;;;;;;4896787;29;20195;-82
2022/02/07 06:31:41;;;;;;;7.10;2.03;;;4.00;99.90;;;;;;4928631;29;20223;-83
2022/02/07 06:34:08;;;;;;;8.13;2.47;;;5.90;99.90;;;;;;4923816;29;20238;-83
2022/02/07 06:36:34;;;;;;;8.60;3.05;;;4.60;99.90;;;;;;4928999;29;20290;-82
2022/02/07 06:39:18;;;;;;;8.13;2.80;;;4.60;99.90;;;;;;4930099;29;20774;-83
2022/02/07 06:41:43;;;;;;;13.10;3.05;;;6.50;99.90;;;;;;4926745;29;20599;-84
2022/02/07 06:44:41;;;;;;;8.77;3.10;;;6.00;99.90;;;;;;4911476;29;20188;-83
2022/02/07 06:47:06;;;;;;;15.00;4.18;;;4.60;99.90;;;;;;4905390;29;20218;-84
2022/02/07 06:49:33;;;;;;;16.57;3.73;;;;;;;;;;4914684;29;20191;-84
2022/02/07 06:52:00;;;;;;;8.65;3.65;;;4.70;99.90;;;;;;4918688;29;20255;-82
2022/02/07 06:54:25;;;;;;;11.17;3.33;;;4.60;99.90;;;;;;4906402;29;20226;-83
2022/02/07 06:56:54;;;;;;;13.57;3.10;;;4.50;99.90;;;;;;4926713;29;20195;-83
2022/02/07 06:59:20;;;;;;;11.23;4.55;;;4.40;99.90;;;;;;4909449;29;20193;-83
2022/02/07 07:01:46;;;;;;;8.68;2.85;;;4.70;99.90;;;;;;4910638;29;20254;-82
2022/02/07 07:04:12;;;;;;;15.77;2.80;;;4.20;99.90;;;;;;4927675;29;20176;-83
2022/02/07 07:06:38;;;;;;;6.85;3.05;;;4.60;99.90;;;;;;4927874;29;20187;-84
2022/02/07 07:09:06;;;;;;;11.98;2.47;;;5.50;99.90;;;;;;4906161;29;20764;-83
2022/02/07 07:11:33;;;;;;;8.57;3.58;;;4.70;99.90;;;;;;4922899;29;20266;-82
2022/02/07 07:14:16;;;;;;;11.19;2.63;;;4.70;99.90;;;;;;4854520;29;10001406;-83
2022/02/07 07:16:52;;;;;;;4.70;1.95;;;4.60;99.90;;;;;;4896174;29;20388;-82
2022/02/07 07:19:19;;;;;;;7.03;2.05;;;4.60;99.90;;;;;;4920908;29;20333;-83
2022/02/07 07:21:45;;;;;;;5.78;2.25;;;4.70;99.90;;;;;;4919810;29;20317;-83
2022/02/07 07:24:11;;;;;;;13.30;2.50;;;4.60;99.90;;;;;;4905619;29;20202;-83
2022/02/07 07:26:38;;;;;;;10.30;2.63;;;4.60;99.90;;;;;;4902311;29;20179;-83
2022/02/07 07:29:10;;;;;;;7.97;2.63;;;5.30;99.90;;;;;;4914182;29;20225;-83
2022/02/07 07:31:43;;;;;;;21.27;3.38;;;4.60;99.90;;;;;;4894383;29;20599;-80
2022/02/07 07:34:09;;;;;;;10.30;2.70;;;5.00;99.90;;;;;;4911428;29;20183;-82
2022/02/07 07:36:35;;;;;;;8.23;3.00;;;4.70;99.90;;;;;;4909823;29;20209;-82
2022/02/07 07:39:00;;;;;;;7.67;2.97;;;5.10;99.90;;;;;;4901268;29;20366;-83
2022/02/07 07:41:27;;;;;;;9.93;2.10;;;4.70;99.90;;;;;;4918405;29;20262;-82
2022/02/07 07:43:53;;;;;;;16.77;2.58;;;4.40;99.90;;;;;;4902027;29;20283;-82
2022/02/07 07:46:25;;;;;;;6.60;2.17;;;4.80;99.90;;;;;;4915040;29;20283;-83
2022/02/07 07:48:58;;;;;;;12.38;2.67;;;4.70;99.90;;;;;;4916901;29;20267;-81
2022/02/07 07:51:37;;;;;;;9.98;2.85;;;4.30;99.90;;;;;;4899715;29;20224;-82
2022/02/07 07:54:19;;;;;;;10.82;3.75;;;4.80;99.90;;;;;;4924291;29;20273;-85
2022/02/07 08:02:18;;;;;;;13.55;3.20;;;5.00;99.90;;;;;;4922634;29;20201;-82
2022/02/07 08:04:45;;;;;;;4.65;2.92;;;5.00;99.90;;;;;;4911228;29;20196;-82
2022/02/07 08:07:18;;;;;;;7.60;1.85;;;5.20;99.90;;;;;;4918040;29;20196;-82
2022/02/07 08:12:11;;;;;;;5.47;2.00;;;5.30;99.90;;;;;;4924141;29;20203;-82
2022/02/07 08:14:37;;;;;;;12.55;3.70;;;5.40;99.90;;;;;;4918466;29;20663;-83
2022/02/07 08:17:05;;;;;;;11.40;2.87;;;5.40;99.90;;;;;;4924485;29;20197;-83
2022/02/07 08:19:33;;;;;;;7.97;2.45;;;5.60;99.90;;;;;;4911626;29;20563;-84
2022/02/07 08:21:58;;;;;;;16.40;2.72;;;6.60;99.90;;;;;;4912847;29;20223;-82
2022/02/07 08:24:25;;;;;;;11.90;2.50;;;5.60;99.90;;;;;;4884133;29;20281;-82
2022/02/07 08:26:53;;;;;;;12.65;3.25;;;5.80;99.90;;;;;;4909714;29;20188;-80
2022/02/07 08:29:19;;;;;;;5.60;1.75;;;5.50;99.90;;;;;;4894636;29;20585;-84
2022/02/07 08:31:45;;;;;;;9.57;2.17;;;5.80;99.90;;;;;;4910038;29;20269;-79
2022/02/07 08:34:10;;;;;;;9.37;3.90;;;6.10;99.90;;;;;;4891768;29;20227;-81
2022/02/07 08:36:36;;;;;;;8.43;2.43;;;7.00;99.90;;;;;;4909467;29;20219;-81
2022/02/07 08:39:03;;;;;;;8.10;2.43;;;6.20;99.90;;;;;;4884951;29;20201;-83
2022/02/07 08:41:29;;;;;;;12.10;3.67;;;5.50;99.90;;;;;;4888247;29;20662;-83
2022/02/07 08:43:55;;;;;;;10.87;5.10;;;4.90;99.90;;;;;;4884033;29;20207;-82
2022/02/07 08:46:21;;;;;;;4.10;1.30;;;5.60;99.90;;;;;;4890974;29;20621;-83
2022/02/07 08:48:47;;;;;;;11.77;2.50;;;6.10;99.90;;;;;;4897735;29;20196;-83
2022/02/07 08:51:15;;;;;;;7.22;2.75;;;6.10;99.90;;;;;;4901180;29;20257;-82
2022/02/07 08:53:46;;;;;;;6.57;2.70;;;6.00;99.90;;;;;;4888931;29;20720;-82
2022/02/07 08:56:13;;;;;;;13.65;2.25;;;5.70;99.90;;;;;;4892961;29;20664;-83
2022/02/07 08:58:43;;;;;;;6.82;3.00;;;6.40;99.90;;;;;;4887373;29;20214;-83
2022/02/07 09:11:15;;;;;;;9.20;2.63;;;6.30;99.90;;;;;;4903734;29;20219;-81
2022/02/07 09:13:43;;;;;;;11.27;3.00;;;6.30;99.90;;;;;;4904336;29;20194;-83
2022/02/07 09:18:37;;;;;;;19.40;3.50;;;6.10;99.90;;;;;;4905051;29;20252;-82
2022/02/07 09:21:06;;;;;;;9.75;3.10;;;7.20;99.90;;;;;;4904036;29;20196;-81
2022/02/07 09:23:33;;;;;;;10.18;3.58;;;6.30;99.90;;;;;;4903259;29;20648;-82
2022/02/07 09:25:59;;;;;;;7.03;3.03;;;6.10;99.90;;;;;;4920831;29;20720;-82
2022/02/07 09:28:25;;;;;;;5.53;2.50;;;6.50;99.90;;;;;;4895934;29;20199;-82
2022/02/07 09:30:53;;;;;;;11.35;3.33;;;6.30;99.90;;;;;;4919225;29;20227;-81
2022/02/07 09:33:20;;;;;;;11.50;4.18;;;6.40;99.90;;;;;;4917334;29;20306;-84
2022/02/07 09:35:49;;;;;;;13.45;3.60;;;6.50;99.90;;;;;;4914510;29;20198;-82
2022/02/07 09:38:15;;;;;;;10.73;3.60;;;6.50;99.90;;;;;;4914723;29;20191;-82
2022/02/07 09:40:42;;;;;;;13.13;3.42;;;6.40;99.90;;;;;;4918453;29;20818;-83
2022/02/07 09:43:08;;;;;;;10.90;3.78;;;6.60;99.90;;;;;;4906381;29;20584;-83
2022/02/07 09:45:37;;;;;;;11.07;3.00;;;6.50;99.90;;;;;;4906947;29;20195;-82
2022/02/07 09:48:06;;;;;;;10.95;3.13;;;6.80;99.90;;;;;;4922536;29;20220;-80
2022/02/07 09:50:33;;;;;;;11.80;2.92;;;8.20;99.90;;;;;;4915308;29;20235;-82
2022/02/07 09:52:58;;;;;;;9.98;3.47;;;6.60;99.90;;;;;;4975249;23;20226;-88
2022/02/07 09:55:25;;;;;;;11.13;3.00;;;9.40;99.90;;;;;;4927580;29;20202;-86
2022/02/07 09:57:53;;;;;;;13.20;3.88;;;8.80;99.90;;;;;;4907877;29;20641;-87
2022/02/07 10:00:30;;;;;;;14.65;3.58;;;8.30;99.90;;;;;;4909684;29;20287;-87
2022/02/07 10:03:17;;;;;;;11.10;3.80;;;8.60;99.90;;;;;;4924699;29;20217;-85
2022/02/07 10:06:10;;;;;;;9.70;3.15;;;10.80;99.90;;;;;;4905016;29;20675;-88
2022/02/07 10:16:39;;;;;;;18.25;3.65;;;8.00;99.90;;;;;;4926495;29;20618;-88
2022/02/07 10:42:32;;;;;;;11.10;4.18;;;9.70;99.90;;;;;;4929869;29;20227;-88
2022/02/07 10:45:33;;;;;;;20.77;3.08;;;8.40;99.90;;;;;;4915680;29;20234;-87
2022/02/07 10:48:25;;;;;;;9.10;3.60;;;9.30;99.90;;;;;;4828534;29;20257;-87
2022/02/07 10:51:22;;;;;;;13.25;4.63;;;8.30;99.90;;;;;;4916383;29;20694;-88
2022/02/07 10:54:49;;;;;;;13.32;3.33;;;8.50;99.90;;;;;;4913016;29;20295;-89
2022/02/07 10:57:33;;;;;;;17.98;3.78;;;10.30;99.90;;;;;;4875509;29;20195;-87
2022/02/07 11:00:48;;;;;;;9.93;2.90;;;7.60;99.90;;;;;;4927370;29;20290;-90
2022/02/07 11:09:07;;;;;;;9.70;3.13;;;7.70;99.90;;;;;;4966006;23;20515;-88
2022/02/07 11:15:00;;;;;;;9.18;2.60;;;8.30;99.90;;;;;;4933450;29;20176;-89
2022/02/07 11:20:23;;;;;;;22.90;4.50;;;8.20;99.90;;;;;;4960105;28;20178;-88
2022/02/07 11:23:27;;;;;;;4.95;2.42;;;8.10;99.90;;;;;;4956884;28;20234;-86
2022/02/07 11:26:48;;;;;;;13.00;4.50;;;8.50;99.90;;;;;;4938615;29;20262;-87
2022/02/07 11:29:51;;;;;;;10.40;2.95;;;8.80;99.90;;;;;;4888745;29;20187;-88
2022/02/07 11:32:38;;;;;;;10.02;3.50;;;8.50;99.90;;;;;;4937505;29;20190;-86
2022/02/07 11:35:12;;;;;;;10.48;3.65;;;8.40;99.90;;;;;;4949939;29;20276;-87
2022/02/07 11:38:06;;;;;;;11.90;3.05;;;10.30;99.90;;;;;;4954440;28;20227;-88
2022/02/07 11:40:36;;;;;;;14.75;2.97;;;8.50;99.90;;;;;;4928022;29;20183;-86
2022/02/07 11:43:41;;;;;;;7.18;3.67;;;8.30;99.90;;;;;;4952223;28;20585;-86
2022/02/07 11:46:14;;;;;;;12.27;2.80;;;9.40;99.90;;;;;;4941437;29;20266;-88
2022/02/07 11:49:11;;;;;;;9.80;3.00;;;7.60;99.90;;;;;;4950023;29;20172;-87
2022/02/07 11:51:39;;;;;;;6.18;3.40;;;11.10;99.90;;;;;;4912454;29;20313;-88
2022/02/07 11:54:07;;;;;;;6.07;2.70;;;8.20;99.90;;;;;;4910991;29;20207;-89
2022/02/07 11:56:49;;;;;;;9.73;3.60;;;9.00;99.90;;;;;;4935052;29;20191;-88
2022/02/07 11:59:18;;;;;;;12.10;4.07;;;10.60;99.90;;;;;;4911837;29;20190;-88
2022/02/07 12:02:07;;;;;;;15.82;3.58;;;10.10;99.90;;;;;;4931440;29;20358;-88
2022/02/07 12:04:42;;;;;;;14.52;3.40;;;7.70;99.90;;;;;;4929094;29;20188;-89
2022/02/07 12:07:16;;;;;;;6.95;3.40;;;9.50;99.90;;;;;;4904177;29;20724;-85
2022/02/07 12:10:03;;;;;;;7.07;2.80;;;8.90;99.90;;;;;;4934029;29;20190;-88
2022/02/07 12:12:49;;;;;;;12.77;2.67;;;7.00;99.90;;;;;;4913865;29;20237;-88
2022/02/07 12:15:37;;;;;;;9.63;3.20;;;7.90;99.90;;;;;;4926614;29;20186;-87
2022/02/07 12:18:12;;;;;;;9.30;2.60;;;8.60;99.90;;;;;;4915435;29;20565;-88
2022/02/07 12:20:38;;;;;;;8.80;2.45;;;7.90;99.90;;;;;;4912699;29;20179;-88
2022/02/07 12:23:07;;;;;;;9.45;2.67;;;7.80;99.90;;;;;;4914056;29;20262;-87
2022/02/07 12:25:41;;;;;;;8.88;3.08;;;7.20;99.90;;;;;;4917681;29;20202;-88
2022/02/07 12:28:12;;;;;;;11.63;4.40;;;8.60;99.90;;;;;;4926509;29;20234;-85
2022/02/07 12:33:22;;;;;;;5.87;3.10;;;11.10;99.90;;;;;;4929086;29;20266;-87
2022/02/07 12:35:48;;;;;;;4.90;2.70;;;11.20;99.90;;;;;;4914211;29;20518;-89
2022/02/07 12:38:14;;;;;;;7.10;2.90;;;11.60;99.90;;;;;;4915235;29;21102;-88
2022/02/07 12:40:42;;;;;;;9.40;3.03;;;11.60;99.90;;;;;;4248095;29;10000669;-88
2022/02/07 12:43:11;;;;;;;6.63;3.10;;;12.40;99.90;;;;;;4929865;29;20199;-87
2022/02/07 12:45:39;;;;;;;12.90;2.87;;;14.40;99.90;;;;;;4911303;29;20454;-86
2022/02/07 12:48:12;;;;;;;8.03;2.57;;;12.10;99.90;;;;;;4914282;29;20451;-86
2022/02/07 12:50:42;;;;;;;12.50;3.70;;;11.20;99.90;;;;;;4898713;29;20479;-89
2022/02/07 12:53:08;;;;;;;6.23;4.27;;;10.50;99.90;;;;;;4909652;29;20455;-89
2022/02/07 12:55:35;;;;;;;11.90;3.90;;;9.90;99.90;;;;;;4926278;29;20557;-86
2022/02/07 12:58:01;;;;;;;8.40;2.60;;;9.30;99.90;;;;;;4908081;29;20421;-88
2022/02/07 13:00:27;;;;;;;3.03;1.55;;;9.60;99.90;;;;;;4908747;29;20482;-84
2022/02/07 13:02:53;;;;;;;3.30;2.20;;;8.70;99.90;;;;;;4929060;29;20229;-88
2022/02/07 13:05:20;;;;;;;7.10;3.33;;;8.40;99.90;;;;;;4911016;29;20216;-87
2022/02/07 13:07:51;;;;;;;14.40;4.43;;;8.30;99.90;;;;;;4919559;29;20246;-88
2022/02/07 13:10:21;;;;;;;11.32;3.65;;;8.20;99.90;;;;;;4926931;29;20217;-89
2022/02/07 13:15:34;;;;;;;18.42;3.90;;;9.10;99.90;;;;;;4919880;29;20711;-89
2022/02/07 13:18:05;;;;;;;5.78;2.65;;;9.30;99.90;;;;;;4917014;29;20519;-87
2022/02/07 13:20:32;;;;;;;11.70;3.17;;;11.90;99.90;;;;;;4929218;29;20212;-88
2022/02/07 13:23:14;;;;;;;8.52;2.67;;;11.90;99.90;;;;;;4916248;29;20426;-86
2022/02/07 13:25:54;;;;;;;9.82;3.22;;;9.20;99.90;;;;;;4925977;29;20190;-88
2022/02/07 13:28:28;;;;;;;7.95;3.10;;;7.80;99.90;;;;;;4926140;29;20287;-90
2022/02/07 13:30:58;;;;;;;10.13;3.25;;;8.30;99.90;;;;;;4909900;29;20223;-90
2022/02/07 13:33:27;;;;;;;9.43;3.33;;;10.70;99.90;;;;;;4903449;29;20562;-89
2022/02/07 13:36:05;;;;;;;9.85;3.03;;;8.10;99.90;;;;;;4927174;29;20210;-87
2022/02/07 13:38:33;;;;;;;6.05;2.85;;;7.50;99.90;;;;;;4926099;29;20224;-88
2022/02/07 13:41:00;;;;;;;11.32;4.18;;;7.80;99.90;;;;;;4929843;29;20318;-87
2022/02/07 13:43:33;;;;;;;3.97;2.75;;;8.30;99.90;;;;;;4932245;29;20732;-87
2022/02/07 13:46:04;;;;;;;6.82;3.08;;;10.90;99.90;;;;;;4931378;29;20439;-88
2022/02/07 13:48:32;;;;;;;9.48;2.72;;;7.90;99.90;;;;;;4915898;29;20664;-88
2022/02/07 13:51:00;;;;;;;7.63;3.03;;;8.30;99.90;;;;;;4936599;29;20267;-86
2022/02/07 13:53:28;;;;;;;5.35;2.72;;;9.20;99.90;;;;;;4918094;29;20207;-89
2022/02/07 13:55:56;;;;;;;15.70;3.47;;;8.60;99.90;;;;;;4920661;29;20232;-87
2022/02/07 13:58:34;;;;;;;10.57;2.85;;;9.20;99.90;;;;;;4922457;29;20604;-88
2022/02/07 14:01:10;;;;;;;5.40;2.55;;;8.40;99.90;;;;;;4920471;29;20187;-89
2022/02/07 14:03:36;;;;;;;7.53;2.63;;;8.60;99.90;;;;;;4908672;29;20222;-87
2022/02/07 14:06:18;;;;;;;9.33;2.27;;;8.20;99.90;;;;;;4922704;29;20199;-87
2022/02/07 14:08:50;;;;;;;6.70;2.63;;;8.10;99.90;;;;;;4562831;29;9999792;-87
2022/02/07 14:11:25;;;;;;;3.63;2.22;;;8.90;99.90;;;;;;4921666;29;20694;-86
2022/02/07 14:13:53;;;;;;;4.90;2.55;;;8.00;99.90;;;;;;4926739;29;20273;-87
2022/02/07 14:16:22;;;;;;;7.82;2.25;;;8.20;99.90;;;;;;4911521;29;20290;-87
2022/02/07 14:18:48;;;;;;;6.05;2.30;;;10.30;99.90;;;;;;4929346;29;20203;-88
2022/02/07 14:21:15;;;;;;;2.45;2.25;;;9.00;99.90;;;;;;4906412;29;20207;-88
2022/02/07 14:23:47;;;;;;;6.78;1.80;;;8.10;99.90;;;;;;4923625;29;20255;-89
2022/02/07 14:26:16;;;;;;;6.22;1.65;;;9.90;99.90;;;;;;4927072;29;20234;-87
2022/02/07 14:28:43;;;;;;;10.00;2.50;;;10.90;99.90;;;;;;4917482;29;20198;-88
2022/02/07 14:31:11;;;;;;;5.65;3.33;;;8.70;99.90;;;;;;4927421;29;20334;-86
2022/02/07 14:33:38;;;;;;;2.30;2.10;;;10.50;99.90;;;;;;4907704;29;20196;-88
2022/02/07 14:36:05;;;;;;;3.40;1.63;;;8.50;99.90;;;;;;4913656;29;20637;-88
2022/02/07 14:38:32;;;;;;;6.75;2.05;;;8.80;99.90;;;;;;4902910;29;20191;-88
2022/02/07 14:40:58;;;;;;;2.88;1.77;;;8.60;99.90;;;;;;4897355;29;20215;-87
2022/02/07 14:43:30;;;;;;;9.30;2.70;;;8.80;99.90;;;;;;4909920;29;20197;-86
2022/02/07 14:48:31;;;;;;;5.07;1.77;;;8.10;99.90;;;;;;4919876;29;20522;-87
2022/02/07 14:50:57;;;;;;;3.75;2.22;;;8.70;99.90;;;;;;4927088;29;20218;-89
2022/02/07 14:53:24;;;;;;;7.35;2.75;;;9.90;99.90;;;;;;4906804;29;20208;-87
2022/02/07 14:55:51;;;;;;;5.97;2.60;;;8.10;99.90;;;;;;4926488;29;20279;-88
2022/02/07 14:58:17;;;;;;;9.05;2.03;;;10.40;99.90;;;;;;4905567;29;20191;-86
2022/02/07 15:00:43;;;;;;;2.50;2.30;;;7.90;99.90;;;;;;4902551;29;20192;-87
2022/02/07 15:03:11;;;;;;;3.60;1.95;;;8.50;99.90;;;;;;4913954;29;20602;-88
2022/02/07 15:05:40;;;;;;;4.70;3.03;;;8.30;99.90;;;;;;4906488;29;20211;-87
2022/02/07 15:08:06;;;;;;;2.92;2.15;;;8.30;99.90;;;;;;4928375;29;20230;-88
2022/02/07 15:10:35;;;;;;;10.63;1.83;;;8.40;99.90;;;;;;4899455;29;20556;-89
2022/02/07 15:13:02;;;;;;;5.18;1.90;;;8.30;99.90;;;;;;4925265;29;21076;-88
2022/02/07 15:15:28;;;;;;;4.18;1.58;;;10.40;99.90;;;;;;4900439;29;20223;-87
2022/02/07 15:18:05;;;;;;;2.30;2.10;;;8.10;99.90;;;;;;4929471;29;20199;-86
2022/02/07 15:20:37;;;;;;;6.95;1.80;;;10.70;99.90;;;;;;4915591;29;20434;-87
2022/02/07 15:23:27;;;;;;;4.70;1.90;;;8.10;99.90;;;;;;4913676;29;20191;-88
2022/02/07 15:25:52;;;;;;;3.80;1.30;;;7.80;99.90;;;;;;4903381;29;21099;-87
2022/02/07 15:28:19;;;;;;;4.90;2.27;;;9.90;99.90;;;;;;4903456;29;20196;-87
2022/02/07 15:30:49;;;;;;;7.65;2.22;;;7.50;99.90;;;;;;4905087;29;20214;-85
2022/02/07 15:33:17;;;;;;;5.28;2.22;;;8.80;99.90;;;;;;4907965;29;20539;-88
2022/02/07 15:35:46;;;;;;;5.20;1.98;;;8.70;99.90;;;;;;4904337;29;20259;-87
2022/02/07 15:38:14;;;;;;;6.22;2.28;;;9.30;99.90;;;;;;4902027;29;20199;-85
2022/02/07 15:40:41;;;;;;;6.10;2.30;;;8.80;99.90;;;;;;4910681;29;20239;-87
2022/02/07 15:43:06;;;;;;;2.65;1.63;;;8.60;99.90;;;;;;4912150;29;20208;-89
2022/02/07 15:45:33;;;;;;;2.57;1.20;;;9.00;99.90;;;;;;4924206;29;20178;-89
2022/02/07 15:48:05;;;;;;;9.15;2.22;;;8.00;99.90;;;;;;4922164;29;20245;-89
2022/02/07 15:50:32;;;;;;;8.50;1.80;;;7.50;99.90;;;;;;4940138;29;20548;-87
2022/02/07 15:53:01;;;;;;;5.95;1.80;;;9.00;99.90;;;;;;4913835;29;20227;-82
2022/02/07 15:55:27;;;;;;;3.88;1.67;;;7.30;99.90;;;;;;4910227;29;20219;-86